Time;durP1;ratioP1;P1;durP2;ratioP2;P2;SDS_P1;SDS_P2;PMS_P1;PMS_P2;Temp;Humidity;BMP_temperature;BMP_pressure;BME280_temperature;BME280_humidity;BME280_pressure;Samples;Min_cycle;Max_cycle;Signal;HPM_P1;HPM_P2
2022/07/18 00:00:23;;;;;;;;;;;;;;;;;;2141498;27;19938;-47
2022/07/18 00:01:24;;;;;;;;;;;;;;;;;;2141450;27;19923;-47
2022/07/18 00:02:25;;;;;;;;;;;;;;;;;;2141442;27;19930;-46
2022/07/18 00:03:26;;;;;;;;;;;;;;;;;;2141523;27;19930;-45
2022/07/18 00:04:27;;;;;;;;;;;;;;;;;;2141671;27;19967;-46
2022/07/18 00:05:28;;;;;;;;;;;;;;;;;;2141333;27;19923;-46
2022/07/18 00:06:29;;;;;;;;;;;;;;;;;;2141308;27;19927;-46
2022/07/18 00:07:30;;;;;;;;;;;;;;;;;;2141441;27;19923;-47
2022/07/18 00:08:31;;;;;;;;;;;;;;;;;;2141467;27;20018;-47
2022/07/18 00:09:32;;;;;;;;;;;;;;;;;;2141346;27;20623;-46
2022/07/18 00:10:36;;;;;;;;;;;;;;;;;;2141510;27;19934;-46
2022/07/18 00:11:37;;;;;;;;;;;;;;;;;;2135234;27;19989;-46
2022/07/18 00:12:38;;;;;;;;;;;;;;;;;;2132727;27;20026;-46
2022/07/18 00:13:39;;;;;;;;;;;;;;;;;;2132891;27;20315;-45
2022/07/18 00:14:40;;;;;;;;;;;;;;;;;;2132694;27;20336;-46
2022/07/18 00:15:41;;;;;;;;;;;;;;;;;;2132748;27;19923;-47
2022/07/18 00:16:42;;;;;;;;;;;;;;;;;;2132529;27;19930;-46
2022/07/18 00:17:43;;;;;;;;;;;;;;;;;;2132876;27;20303;-47
2022/07/18 00:18:43;;;;;;;;;;;;;;;;;;2132601;27;20013;-46
2022/07/18 00:19:45;;;;;;;;;;;;;;;;;;2132808;27;19923;-46
2022/07/18 00:20:45;;;;;;;;;;;;;;;;;;2132591;27;19923;-47
2022/07/18 00:21:46;;;;;;;;;;;;;;;;;;2132658;27;19971;-46
2022/07/18 00:22:47;;;;;;;;;;;;;;;;;;2132643;27;19930;-47
2022/07/18 00:23:48;;;;;;;;;;;;;;;;;;2133001;27;19948;-46
2022/07/18 00:24:49;;;;;;;;;;;;;;;;;;2132694;27;19968;-46
2022/07/18 00:25:50;;;;;;;;;;;;;;;;;;2132647;27;19984;-46
2022/07/18 00:26:51;;;;;;;;;;;;;;;;;;2132574;27;20018;-45
2022/07/18 00:27:52;;;;;;;;;;;;;;;;;;2132624;27;19962;-46
2022/07/18 00:28:52;;;;;;;;;;;;;;;;;;2132574;27;19961;-46
2022/07/18 00:29:53;;;;;;;;;;;;;;;;;;2132610;27;19923;-46
2022/07/18 00:30:54;;;;;;;;;;;;;;;;;;2132702;27;19923;-47
2022/07/18 00:31:55;;;;;;;;;;;;;;;;;;2132668;27;20427;-46
2022/07/18 00:32:56;;;;;;;;;;;;;;;;;;2132732;27;19927;-47
2022/07/18 00:33:57;;;;;;;;;;;;;;;;;;2132649;27;19923;-45
2022/07/18 00:34:58;;;;;;;;;;;;;;;;;;2132653;27;20009;-46
2022/07/18 00:35:59;;;;;;;;;;;;;;;;;;2132657;27;19923;-45
2022/07/18 00:37:00;;;;;;;;;;;;;;;;;;2132423;27;20392;-46
2022/07/18 00:38:02;;;;;;;;;;;;;;;;;;2132628;27;19930;-46
2022/07/18 00:39:03;;;;;;;;;;;;;;;;;;2132748;27;20014;-47
2022/07/18 00:40:03;;;;;;;;;;;;;;;;;;2132598;27;19959;-47
2022/07/18 00:41:04;;;;;;;;;;;;;;;;;;2132465;27;20038;-46
2022/07/18 00:42:05;;;;;;;;;;;;;;;;;;2136854;27;20357;-46
2022/07/18 00:43:06;;;;;;;;;;;;;;;;;;2141014;27;19926;-46
2022/07/18 00:44:11;;;;;;;;;;;;;;;;;;2141158;27;19922;-46
2022/07/18 00:45:12;;;;;;;;;;;;;;;;;;2141232;27;19962;-46
2022/07/18 00:46:13;;;;;;;;;;;;;;;;;;2141068;27;20017;-46
2022/07/18 00:47:14;;;;;;;;;;;;;;;;;;2141138;27;20363;-46
2022/07/18 00:48:15;;;;;;;;;;;;;;;;;;2141096;27;20013;-46
2022/07/18 00:49:16;;;;;;;;;;;;;;;;;;2141087;27;19970;-46
2022/07/18 00:50:17;;;;;;;;;;;;;;;;;;2141067;27;20017;-47
2022/07/18 00:51:18;;;;;;;;;;;;;;;;;;2141055;27;20236;-47
2022/07/18 00:52:19;;;;;;;;;;;;;;;;;;2141078;27;19934;-45
2022/07/18 00:53:19;;;;;;;;;;;;;;;;;;2141274;27;20379;-46
2022/07/18 00:54:20;;;;;;;;;;;;;;;;;;2141169;27;19923;-46
2022/07/18 00:55:21;;;;;;;;;;;;;;;;;;2141059;27;19923;-45
2022/07/18 00:56:22;;;;;;;;;;;;;;;;;;2141219;27;19923;-45
2022/07/18 00:57:23;;;;;;;;;;;;;;;;;;2141196;27;19927;-46
2022/07/18 00:58:24;;;;;;;;;;;;;;;;;;2141138;27;19923;-45
2022/07/18 01:01:42;;;;;;;;;;;;;;;;;;2141057;27;20010;-47
2022/07/18 01:02:06;;;;;;;;;;;;;;;;;;2141016;27;20434;-46
2022/07/18 01:03:07;;;;;;;;;;;;;;;;;;2139771;27;19961;-46
2022/07/18 01:04:07;;;;;;;;;;;;;;;;;;2140985;27;19923;-46
2022/07/18 01:05:08;;;;;;;;;;;;;;;;;;2141086;27;19926;-46
2022/07/18 01:06:09;;;;;;;;;;;;;;;;;;2140934;27;19927;-46
2022/07/18 01:07:10;;;;;;;;;;;;;;;;;;2140914;27;20402;-46
2022/07/18 01:08:11;;;;;;;;;;;;;;;;;;2141017;27;20013;-47
2022/07/18 01:09:12;;;;;;;;;;;;;;;;;;2141147;27;20264;-47
2022/07/18 01:10:13;;;;;;;;;;;;;;;;;;2141201;27;19971;-46
2022/07/18 01:11:14;;;;;;;;;;;;;;;;;;2138120;27;20400;-47
2022/07/18 01:12:14;;;;;;;;;;;;;;;;;;2132323;27;20059;-47
2022/07/18 01:13:15;;;;;;;;;;;;;;;;;;2132380;27;19923;-46
2022/07/18 01:14:16;;;;;;;;;;;;;;;;;;2132462;27;19927;-48
2022/07/18 01:15:17;;;;;;;;;;;;;;;;;;2132289;27;20075;-48
2022/07/18 01:16:18;;;;;;;;;;;;;;;;;;2132198;27;20078;-47
2022/07/18 01:17:19;;;;;;;;;;;;;;;;;;2132244;27;19927;-46
2022/07/18 01:18:20;;;;;;;;;;;;;;;;;;2132403;27;19930;-47
2022/07/18 01:19:21;;;;;;;;;;;;;;;;;;2132422;27;19923;-47
2022/07/18 01:20:22;;;;;;;;;;;;;;;;;;2132462;27;19923;-46
2022/07/18 01:21:22;;;;;;;;;;;;;;;;;;2132196;27;20014;-47
2022/07/18 01:22:24;;;;;;;;;;;;;;;;;;2132406;27;19923;-48
2022/07/18 01:23:25;;;;;;;;;;;;;;;;;;2132347;27;19929;-46
2022/07/18 01:24:26;;;;;;;;;;;;;;;;;;2132252;27;19923;-47
2022/07/18 01:25:26;;;;;;;;;;;;;;;;;;2132341;27;20071;-47
2022/07/18 01:26:27;;;;;;;;;;;;;;;;;;2132138;27;20389;-47
2022/07/18 01:27:28;;;;;;;;;;;;;;;;;;2132258;27;20325;-46
2022/07/18 01:28:29;;;;;;;;;;;;;;;;;;2132221;27;20181;-47
2022/07/18 01:29:30;;;;;;;;;;;;;;;;;;2132445;27;20011;-47
2022/07/18 01:30:31;;;;;;;;;;;;;;;;;;2132481;27;20297;-47
2022/07/18 01:31:33;;;;;;;;;;;;;;;;;;2132232;27;20056;-47
2022/07/18 01:32:34;;;;;;;;;;;;;;;;;;2132182;27;19954;-46
2022/07/18 01:33:35;;;;;;;;;;;;;;;;;;2132441;27;19923;-47
2022/07/18 01:34:36;;;;;;;;;;;;;;;;;;2132249;27;19992;-46
2022/07/18 01:35:37;;;;;;;;;;;;;;;;;;2132567;27;20059;-47
2022/07/18 01:36:38;;;;;;;;;;;;;;;;;;2132263;27;19976;-46
2022/07/18 01:37:38;;;;;;;;;;;;;;;;;;2132154;27;20013;-46
2022/07/18 01:38:39;;;;;;;;;;;;;;;;;;2139413;27;20009;-47
2022/07/18 01:39:41;;;;;;;;;;;;;;;;;;2140718;27;19923;-46
2022/07/18 01:40:42;;;;;;;;;;;;;;;;;;2140659;27;19923;-46
2022/07/18 01:41:43;;;;;;;;;;;;;;;;;;2140738;27;20005;-46
2022/07/18 01:42:44;;;;;;;;;;;;;;;;;;2141047;27;19930;-46
2022/07/18 01:43:44;;;;;;;;;;;;;;;;;;2140811;27;20017;-47
2022/07/18 01:44:45;;;;;;;;;;;;;;;;;;2141145;27;19922;-47
2022/07/18 01:45:46;;;;;;;;;;;;;;;;;;2140758;27;20359;-47
2022/07/18 01:46:47;;;;;;;;;;;;;;;;;;2140518;27;19930;-47
2022/07/18 01:47:48;;;;;;;;;;;;;;;;;;2140824;27;19923;-46
2022/07/18 01:48:49;;;;;;;;;;;;;;;;;;2140917;27;20448;-47
2022/07/18 01:49:50;;;;;;;;;;;;;;;;;;2140767;27;19962;-49
2022/07/18 01:50:51;;;;;;;;;;;;;;;;;;2140613;27;19923;-48
2022/07/18 01:51:52;;;;;;;;;;;;;;;;;;2140791;27;19923;-47
2022/07/18 01:52:53;;;;;;;;;;;;;;;;;;2140848;27;19930;-48
2022/07/18 01:53:53;;;;;;;;;;;;;;;;;;2140802;27;20040;-46
2022/07/18 01:54:54;;;;;;;;;;;;;;;;;;2140754;27;19923;-47
2022/07/18 01:55:55;;;;;;;;;;;;;;;;;;2140705;27;20014;-47
2022/07/18 01:56:56;;;;;;;;;;;;;;;;;;2140889;27;20351;-47
2022/07/18 01:57:57;;;;;;;;;;;;;;;;;;2140606;27;20393;-47
2022/07/18 01:58:58;;;;;;;;;;;;;;;;;;2140666;27;19967;-48
2022/07/18 01:59:59;;;;;;;;;;;;;;;;;;2140709;27;20018;-47
2022/07/18 02:01:00;;;;;;;;;;;;;;;;;;2140671;27;19929;-46
2022/07/18 02:02:00;;;;;;;;;;;;;;;;;;2140901;27;19922;-46
2022/07/18 02:03:02;;;;;;;;;;;;;;;;;;2140939;27;19923;-46
2022/07/18 02:04:02;;;;;;;;;;;;;;;;;;2140715;27;20024;-47
2022/07/18 02:05:03;;;;;;;;;;;;;;;;;;2140878;27;19953;-46
2022/07/18 02:06:04;;;;;;;;;;;;;;;;;;2140895;27;20013;-46
2022/07/18 02:07:05;;;;;;;;;;;;;;;;;;2140596;27;20130;-47
2022/07/18 02:08:06;;;;;;;;;;;;;;;;;;2140579;27;19938;-46
2022/07/18 02:09:07;;;;;;;;;;;;;;;;;;2140615;27;19977;-47
2022/07/18 02:10:08;;;;;;;;;;;;;;;;;;2140577;27;19930;-46
2022/07/18 02:11:09;;;;;;;;;;;;;;;;;;2138168;27;20395;-46
2022/07/18 02:12:10;;;;;;;;;;;;;;;;;;2131998;27;19926;-47
2022/07/18 02:13:11;;;;;;;;;;;;;;;;;;2132002;27;19931;-46
2022/07/18 02:14:11;;;;;;;;;;;;;;;;;;2131546;27;19923;-46
2022/07/18 02:15:12;;;;;;;;;;;;;;;;;;2132110;27;20394;-47
2022/07/18 02:16:13;;;;;;;;;;;;;;;;;;2132177;27;19944;-47
2022/07/18 02:17:14;;;;;;;;;;;;;;;;;;2131800;27;19923;-47
2022/07/18 02:18:16;;;;;;;;;;;;;;;;;;2131870;27;20010;-46
2022/07/18 02:19:17;;;;;;;;;;;;;;;;;;2138728;27;20391;-47
2022/07/18 02:20:18;;;;;;;;;;;;;;;;;;2140333;27;20025;-47
2022/07/18 02:21:19;;;;;;;;;;;;;;;;;;2140732;27;20014;-46
2022/07/18 02:22:20;;;;;;;;;;;;;;;;;;2140575;27;20328;-47
2022/07/18 02:23:21;;;;;;;;;;;;;;;;;;2140405;27;19923;-47
2022/07/18 02:24:22;;;;;;;;;;;;;;;;;;2140447;27;20360;-47
2022/07/18 02:25:23;;;;;;;;;;;;;;;;;;2140631;27;19930;-46
2022/07/18 02:26:24;;;;;;;;;;;;;;;;;;2140447;27;20002;-47
2022/07/18 02:27:25;;;;;;;;;;;;;;;;;;2141051;27;20014;-46
2022/07/18 02:28:25;;;;;;;;;;;;;;;;;;2140467;27;19962;-47
2022/07/18 02:29:27;;;;;;;;;;;;;;;;;;2140365;27;20021;-46
2022/07/18 02:30:28;;;;;;;;;;;;;;;;;;2140798;27;20022;-48
2022/07/18 02:31:28;;;;;;;;;;;;;;;;;;2140333;27;19929;-46
2022/07/18 02:32:29;;;;;;;;;;;;;;;;;;2140469;27;19929;-46
2022/07/18 02:33:30;;;;;;;;;;;;;;;;;;2140614;27;20025;-48
2022/07/18 02:34:31;;;;;;;;;;;;;;;;;;2140390;27;19923;-46
2022/07/18 02:35:32;;;;;;;;;;;;;;;;;;2140413;27;20034;-46
2022/07/18 02:36:33;;;;;;;;;;;;;;;;;;2140723;27;19923;-47
2022/07/18 02:37:34;;;;;;;;;;;;;;;;;;2140419;27;19937;-46
2022/07/18 02:38:35;;;;;;;;;;;;;;;;;;2140301;27;19961;-46
2022/07/18 02:39:36;;;;;;;;;;;;;;;;;;2140583;27;20017;-46
2022/07/18 02:40:37;;;;;;;;;;;;;;;;;;2140344;27;20021;-47
2022/07/18 02:41:38;;;;;;;;;;;;;;;;;;2140231;27;19923;-46
2022/07/18 02:42:39;;;;;;;;;;;;;;;;;;2140621;27;20032;-46
2022/07/18 02:43:40;;;;;;;;;;;;;;;;;;2141089;27;19975;-48
2022/07/18 02:44:41;;;;;;;;;;;;;;;;;;2140223;27;19930;-47
2022/07/18 02:45:42;;;;;;;;;;;;;;;;;;2140579;27;19922;-46
2022/07/18 02:46:43;;;;;;;;;;;;;;;;;;2140393;27;20015;-47
2022/07/18 02:47:44;;;;;;;;;;;;;;;;;;2140492;27;20463;-48
2022/07/18 02:48:45;;;;;;;;;;;;;;;;;;2140497;27;20009;-47
2022/07/18 02:49:46;;;;;;;;;;;;;;;;;;2140532;27;20029;-46
2022/07/18 02:50:47;;;;;;;;;;;;;;;;;;2140202;27;20459;-47
2022/07/18 02:51:48;;;;;;;;;;;;;;;;;;2140097;27;19923;-45
2022/07/18 02:52:50;;;;;;;;;;;;;;;;;;2140309;27;19961;-46
2022/07/18 02:53:50;;;;;;;;;;;;;;;;;;2140159;27;20383;-46
2022/07/18 02:54:51;;;;;;;;;;;;;;;;;;2140337;27;19930;-46
2022/07/18 02:55:52;;;;;;;;;;;;;;;;;;2140544;27;19923;-48
2022/07/18 02:56:53;;;;;;;;;;;;;;;;;;2140477;27;19947;-45
2022/07/18 02:57:54;;;;;;;;;;;;;;;;;;2140455;27;19923;-46
2022/07/18 02:58:55;;;;;;;;;;;;;;;;;;2140302;27;20042;-46
2022/07/18 02:59:56;;;;;;;;;;;;;;;;;;2140186;27;19930;-45
2022/07/18 03:00:57;;;;;;;;;;;;;;;;;;2140120;27;19927;-45
2022/07/18 03:01:58;;;;;;;;;;;;;;;;;;2140405;27;19929;-46
2022/07/18 03:02:59;;;;;;;;;;;;;;;;;;2140507;27;19975;-47
2022/07/18 03:04:02;;;;;;;;;;;;;;;;;;2140815;27;20013;-48
2022/07/18 03:05:03;;;;;;;;;;;;;;;;;;2140252;27;19926;-46
2022/07/18 03:06:04;;;;;;;;;;;;;;;;;;2140193;27;19926;-47
2022/07/18 03:07:05;;;;;;;;;;;;;;;;;;2140340;27;20363;-47
2022/07/18 03:08:06;;;;;;;;;;;;;;;;;;2140560;27;19930;-49
2022/07/18 03:09:07;;;;;;;;;;;;;;;;;;2140260;27;19927;-48
2022/07/18 03:10:08;;;;;;;;;;;;;;;;;;2140318;27;20009;-47
2022/07/18 03:11:09;;;;;;;;;;;;;;;;;;2138233;27;20332;-47
2022/07/18 03:12:09;;;;;;;;;;;;;;;;;;2131800;27;20030;-47
2022/07/18 03:13:10;;;;;;;;;;;;;;;;;;2131736;27;20081;-48
2022/07/18 03:14:11;;;;;;;;;;;;;;;;;;2131614;27;19933;-47
2022/07/18 03:15:12;;;;;;;;;;;;;;;;;;2131644;27;19969;-48
2022/07/18 03:16:13;;;;;;;;;;;;;;;;;;2131592;27;20010;-47
2022/07/18 03:17:15;;;;;;;;;;;;;;;;;;2131508;27;20084;-45
2022/07/18 03:18:17;;;;;;;;;;;;;;;;;;2131877;27;19962;-48
2022/07/18 03:19:18;;;;;;;;;;;;;;;;;;2131726;27;19962;-48
2022/07/18 03:20:18;;;;;;;;;;;;;;;;;;2131564;27;20259;-46
2022/07/18 03:21:20;;;;;;;;;;;;;;;;;;2131284;27;19927;-47
2022/07/18 03:22:20;;;;;;;;;;;;;;;;;;2131530;27;20003;-47
2022/07/18 03:23:22;;;;;;;;;;;;;;;;;;2131482;27;20051;-46
2022/07/18 03:24:22;;;;;;;;;;;;;;;;;;2131705;27;20509;-47
2022/07/18 03:25:23;;;;;;;;;;;;;;;;;;2131515;27;19924;-48
2022/07/18 03:26:24;;;;;;;;;;;;;;;;;;2132636;27;20352;-47
2022/07/18 03:27:25;;;;;;;;;;;;;;;;;;2133006;27;19930;-48
2022/07/18 03:28:26;;;;;;;;;;;;;;;;;;2133205;27;20009;-47
2022/07/18 03:29:27;;;;;;;;;;;;;;;;;;2133198;27;19933;-46
2022/07/18 03:30:28;;;;;;;;;;;;;;;;;;2134234;27;20006;-46
2022/07/18 03:31:29;;;;;;;;;;;;;;;;;;2139917;27;20009;-47
2022/07/18 03:32:30;;;;;;;;;;;;;;;;;;2133435;27;19923;-47
2022/07/18 03:33:31;;;;;;;;;;;;;;;;;;2132978;27;20067;-47
2022/07/18 03:34:32;;;;;;;;;;;;;;;;;;2133002;27;19966;-47
2022/07/18 03:35:32;;;;;;;;;;;;;;;;;;2133044;27;19923;-47
2022/07/18 03:36:34;;;;;;;;;;;;;;;;;;2132973;27;19923;-48
2022/07/18 03:37:35;;;;;;;;;;;;;;;;;;2133134;27;19953;-47
2022/07/18 03:38:36;;;;;;;;;;;;;;;;;;2132993;27;19927;-47
2022/07/18 03:39:36;;;;;;;;;;;;;;;;;;2133124;27;19970;-47
2022/07/18 03:40:37;;;;;;;;;;;;;;;;;;2133134;27;19946;-46
2022/07/18 03:41:38;;;;;;;;;;;;;;;;;;2132748;27;19923;-47
2022/07/18 03:42:39;;;;;;;;;;;;;;;;;;2133067;27;19930;-46
2022/07/18 03:43:40;;;;;;;;;;;;;;;;;;2132968;27;20435;-47
2022/07/18 03:44:41;;;;;;;;;;;;;;;;;;2133027;27;19930;-48
2022/07/18 03:45:42;;;;;;;;;;;;;;;;;;2133069;27;19923;-48
2022/07/18 03:46:46;;;;;;;;;;;;;;;;;;2132995;27;19927;-47
2022/07/18 03:47:47;;;;;;;;;;;;;;;;;;2133561;27;20025;-47
2022/07/18 03:48:48;;;;;;;;;;;;;;;;;;2132998;27;19923;-46
2022/07/18 03:49:49;;;;;;;;;;;;;;;;;;2133839;27;19969;-48
2022/07/18 03:50:50;;;;;;;;;;;;;;;;;;2133421;27;19923;-47
2022/07/18 03:51:51;;;;;;;;;;;;;;;;;;2132787;27;19923;-46
2022/07/18 03:52:52;;;;;;;;;;;;;;;;;;2133312;27;19967;-48
2022/07/18 03:53:53;;;;;;;;;;;;;;;;;;2132903;27;19945;-48
2022/07/18 03:54:54;;;;;;;;;;;;;;;;;;2132794;27;19923;-48
2022/07/18 03:55:55;;;;;;;;;;;;;;;;;;2132991;27;19970;-47
2022/07/18 03:56:56;;;;;;;;;;;;;;;;;;2133012;27;19930;-48
2022/07/18 03:57:57;;;;;;;;;;;;;;;;;;2132916;27;20014;-50
2022/07/18 03:58:58;;;;;;;;;;;;;;;;;;2133439;27;19931;-49
2022/07/18 03:59:59;;;;;;;;;;;;;;;;;;2133369;27;19991;-47
2022/07/18 04:01:00;;;;;;;;;;;;;;;;;;2133577;27;19950;-48
2022/07/18 04:02:01;;;;;;;;;;;;;;;;;;2132951;27;19930;-48
2022/07/18 04:03:02;;;;;;;;;;;;;;;;;;2133057;27;19923;-47
2022/07/18 04:04:05;;;;;;;;;;;;;;;;;;2132747;27;19949;-47
2022/07/18 04:05:06;;;;;;;;;;;;;;;;;;2132888;27;19923;-49
2022/07/18 04:06:07;;;;;;;;;;;;;;;;;;2132698;27;20414;-49
2022/07/18 04:07:08;;;;;;;;;;;;;;;;;;2133066;27;19923;-46
2022/07/18 04:08:09;;;;;;;;;;;;;;;;;;2132916;27;20021;-49
2022/07/18 04:09:10;;;;;;;;;;;;;;;;;;2132894;27;19973;-48
2022/07/18 04:10:10;;;;;;;;;;;;;;;;;;2133348;27;19970;-46
2022/07/18 04:11:12;;;;;;;;;;;;;;;;;;2133116;27;19932;-47
2022/07/18 04:12:20;;;;;;;;;;;;;;;;;;2132857;27;19947;-47
2022/07/18 04:13:21;;;;;;;;;;;;;;;;;;2133267;27;20424;-47
2022/07/18 04:14:22;;;;;;;;;;;;;;;;;;2132730;27;19948;-48
2022/07/18 04:15:23;;;;;;;;;;;;;;;;;;2133027;27;19979;-47
2022/07/18 04:16:24;;;;;;;;;;;;;;;;;;2133130;27;20014;-46
2022/07/18 04:17:25;;;;;;;;;;;;;;;;;;2132653;27;20592;-46
2022/07/18 04:18:26;;;;;;;;;;;;;;;;;;2132829;27;20014;-46
2022/07/18 04:19:27;;;;;;;;;;;;;;;;;;2132659;27;19926;-47
2022/07/18 04:20:28;;;;;;;;;;;;;;;;;;2133185;27;19923;-48
2022/07/18 04:21:29;;;;;;;;;;;;;;;;;;2132838;27;19923;-48
2022/07/18 04:22:31;;;;;;;;;;;;;;;;;;2132750;27;19948;-46
2022/07/18 04:23:32;;;;;;;;;;;;;;;;;;2132735;27;19927;-46
2022/07/18 04:24:33;;;;;;;;;;;;;;;;;;2134159;27;19937;-48
2022/07/18 04:25:34;;;;;;;;;;;;;;;;;;2141354;27;19923;-47
2022/07/18 04:26:35;;;;;;;;;;;;;;;;;;2141557;27;20371;-46
2022/07/18 04:27:36;;;;;;;;;;;;;;;;;;2133578;27;19931;-45
2022/07/18 04:28:37;;;;;;;;;;;;;;;;;;2141130;27;20212;-46
2022/07/18 04:29:38;;;;;;;;;;;;;;;;;;2141961;27;19923;-46
2022/07/18 04:30:39;;;;;;;;;;;;;;;;;;2141200;27;19922;-46
2022/07/18 04:31:40;;;;;;;;;;;;;;;;;;2142327;27;20094;-47
2022/07/18 04:32:41;;;;;;;;;;;;;;;;;;2141466;27;19929;-46
2022/07/18 04:33:42;;;;;;;;;;;;;;;;;;2141373;27;19983;-46
2022/07/18 04:34:43;;;;;;;;;;;;;;;;;;2141575;27;20328;-46
2022/07/18 04:35:44;;;;;;;;;;;;;;;;;;2141290;27;20027;-46
2022/07/18 04:36:45;;;;;;;;;;;;;;;;;;2141479;27;20047;-47
2022/07/18 04:37:46;;;;;;;;;;;;;;;;;;2141416;27;19995;-47
2022/07/18 04:38:47;;;;;;;;;;;;;;;;;;2141800;27;20009;-47
2022/07/18 04:39:48;;;;;;;;;;;;;;;;;;2141226;27;19926;-47
2022/07/18 04:40:49;;;;;;;;;;;;;;;;;;2141195;27;19923;-46
2022/07/18 04:41:50;;;;;;;;;;;;;;;;;;2141322;27;19930;-46
2022/07/18 04:42:50;;;;;;;;;;;;;;;;;;2142054;27;20478;-46
2022/07/18 04:43:52;;;;;;;;;;;;;;;;;;2141595;27;20018;-45
2022/07/18 04:44:52;;;;;;;;;;;;;;;;;;2141518;27;20451;-46
2022/07/18 04:45:54;;;;;;;;;;;;;;;;;;2141257;27;19929;-46
2022/07/18 04:46:54;;;;;;;;;;;;;;;;;;2141461;27;20170;-45
2022/07/18 04:47:56;;;;;;;;;;;;;;;;;;2141473;27;19922;-46
2022/07/18 04:48:56;;;;;;;;;;;;;;;;;;2141349;27;20041;-46
2022/07/18 04:49:58;;;;;;;;;;;;;;;;;;2140954;27;19927;-46
2022/07/18 04:50:59;;;;;;;;;;;;;;;;;;2141275;27;19923;-47
2022/07/18 04:52:00;;;;;;;;;;;;;;;;;;2141775;27;19923;-47
2022/07/18 04:53:01;;;;;;;;;;;;;;;;;;2141224;27;19961;-44
2022/07/18 04:54:01;;;;;;;;;;;;;;;;;;2141319;27;20040;-44
2022/07/18 04:55:02;;;;;;;;;;;;;;;;;;2141204;27;19947;-44
2022/07/18 04:56:03;;;;;;;;;;;;;;;;;;2141118;27;20359;-46
2022/07/18 04:57:04;;;;;;;;;;;;;;;;;;2141297;27;19973;-47
2022/07/18 04:58:05;;;;;;;;;;;;;;;;;;2141686;27;20363;-47
2022/07/18 04:59:07;;;;;;;;;;;;;;;;;;2141313;27;19926;-45
2022/07/18 05:00:08;;;;;;;;;;;;;;;;;;2141414;27;19944;-46
2022/07/18 05:01:09;;;;;;;;;;;;;;;;;;2141527;27;19931;-48
2022/07/18 05:02:10;;;;;;;;;;;;;;;;;;2141132;27;20472;-45
2022/07/18 05:03:11;;;;;;;;;;;;;;;;;;2141620;27;19968;-47
2022/07/18 05:04:12;;;;;;;;;;;;;;;;;;2141035;27;20348;-47
2022/07/18 05:05:13;;;;;;;;;;;;;;;;;;2141180;27;19923;-44
2022/07/18 05:06:14;;;;;;;;;;;;;;;;;;2141210;27;20261;-46
2022/07/18 05:07:15;;;;;;;;;;;;;;;;;;2141864;27;19923;-47
2022/07/18 05:08:16;;;;;;;;;;;;;;;;;;2141250;27;19926;-44
2022/07/18 05:09:17;;;;;;;;;;;;;;;;;;2141335;27;19927;-47
2022/07/18 05:10:18;;;;;;;;;;;;;;;;;;2141423;27;19923;-46
2022/07/18 05:11:20;;;;;;;;;;;;;;;;;;2137759;27;19981;-45
2022/07/18 05:12:23;;;;;;;;;;;;;;;;;;2132563;27;20027;-44
2022/07/18 05:13:24;;;;;;;;;;;;;;;;;;2132412;27;19967;-44
2022/07/18 05:14:25;;;;;;;;;;;;;;;;;;2132858;27;19923;-48
2022/07/18 05:15:26;;;;;;;;;;;;;;;;;;2133198;27;20372;-45
2022/07/18 05:16:27;;;;;;;;;;;;;;;;;;2132709;27;19931;-46
2022/07/18 05:17:28;;;;;;;;;;;;;;;;;;2132421;27;19927;-45
2022/07/18 05:18:29;;;;;;;;;;;;;;;;;;2133203;27;20375;-45
2022/07/18 05:19:30;;;;;;;;;;;;;;;;;;2132662;27;20348;-45
2022/07/18 05:20:31;;;;;;;;;;;;;;;;;;2132382;27;19923;-46
2022/07/18 05:21:32;;;;;;;;;;;;;;;;;;2132810;27;20279;-47
2022/07/18 05:22:33;;;;;;;;;;;;;;;;;;2133565;27;19971;-48
2022/07/18 05:23:34;;;;;;;;;;;;;;;;;;2139644;27;19973;-47
2022/07/18 05:24:35;;;;;;;;;;;;;;;;;;2141421;27;19918;-45
2022/07/18 05:25:36;;;;;;;;;;;;;;;;;;2141297;27;20302;-46
2022/07/18 05:26:37;;;;;;;;;;;;;;;;;;2140473;27;19926;-46
2022/07/18 05:27:38;;;;;;;;;;;;;;;;;;2141021;27;19930;-47
2022/07/18 05:28:39;;;;;;;;;;;;;;;;;;2141432;27;20269;-48
2022/07/18 05:29:40;;;;;;;;;;;;;;;;;;2141641;27;20025;-43
2022/07/18 05:30:41;;;;;;;;;;;;;;;;;;2141185;27;20280;-46
2022/07/18 05:31:41;;;;;;;;;;;;;;;;;;2141861;27;20371;-49
2022/07/18 05:32:44;;;;;;;;;;;;;;;;;;2140948;27;20231;-46
2022/07/18 05:33:45;;;;;;;;;;;;;;;;;;2140919;27;20028;-47
2022/07/18 05:34:46;;;;;;;;;;;;;;;;;;2141576;27;19943;-44
2022/07/18 05:35:47;;;;;;;;;;;;;;;;;;2141043;27;20009;-47
2022/07/18 05:36:48;;;;;;;;;;;;;;;;;;2140908;27;20021;-46
2022/07/18 05:37:49;;;;;;;;;;;;;;;;;;2140752;27;19929;-45
2022/07/18 05:38:49;;;;;;;;;;;;;;;;;;2141151;27;20428;-45
2022/07/18 05:39:51;;;;;;;;;;;;;;;;;;2141214;27;19922;-46
2022/07/18 05:40:52;;;;;;;;;;;;;;;;;;2140874;27;19923;-47
2022/07/18 05:41:53;;;;;;;;;;;;;;;;;;2141064;27;19922;-44
2022/07/18 05:42:54;;;;;;;;;;;;;;;;;;2141760;27;20040;-49
2022/07/18 05:43:56;;;;;;;;;;;;;;;;;;2141172;27;19930;-46
2022/07/18 05:44:57;;;;;;;;;;;;;;;;;;2140770;27;19929;-46
2022/07/18 05:45:58;;;;;;;;;;;;;;;;;;2140984;27;19926;-46
2022/07/18 05:46:59;;;;;;;;;;;;;;;;;;2141362;27;20440;-47
2022/07/18 05:48:00;;;;;;;;;;;;;;;;;;2140910;27;20014;-44
2022/07/18 05:49:00;;;;;;;;;;;;;;;;;;2140202;27;19923;-47
2022/07/18 05:50:01;;;;;;;;;;;;;;;;;;2141284;27;19923;-44
2022/07/18 05:51:02;;;;;;;;;;;;;;;;;;2141086;27;20008;-48
2022/07/18 05:52:03;;;;;;;;;;;;;;;;;;2141390;27;20383;-47
2022/07/18 05:53:04;;;;;;;;;;;;;;;;;;2141316;27;19958;-46
2022/07/18 05:54:05;;;;;;;;;;;;;;;;;;2140865;27;20386;-45
2022/07/18 05:55:06;;;;;;;;;;;;;;;;;;2140919;27;20369;-46
2022/07/18 05:56:07;;;;;;;;;;;;;;;;;;2140809;27;20017;-43
2022/07/18 05:57:08;;;;;;;;;;;;;;;;;;2140957;27;19961;-48
2022/07/18 05:58:09;;;;;;;;;;;;;;;;;;2140916;27;20414;-47
2022/07/18 05:59:10;;;;;;;;;;;;;;;;;;2141267;27;20406;-47
2022/07/18 06:00:11;;;;;;;;;;;;;;;;;;2140697;27;19927;-47
2022/07/18 06:01:16;;;;;;;;;;;;;;;;;;2140968;27;20036;-44
2022/07/18 06:02:17;;;;;;;;;;;;;;;;;;2141067;27;19926;-49
2022/07/18 06:03:18;;;;;;;;;;;;;;;;;;2140525;27;19930;-49
2022/07/18 06:04:20;;;;;;;;;;;;;;;;;;2140760;27;20286;-46
2022/07/18 06:05:20;;;;;;;;;;;;;;;;;;2140947;27;20350;-44
2022/07/18 06:06:24;;;;;;;;;;;;;;;;;;2141009;27;19923;-46
2022/07/18 06:07:25;;;;;;;;;;;;;;;;;;2140610;27;20029;-48
2022/07/18 06:08:26;;;;;;;;;;;;;;;;;;2140743;27;19926;-47
2022/07/18 06:09:30;;;;;;;;;;;;;;;;;;2140840;27;19961;-48
2022/07/18 06:10:32;;;;;;;;;;;;;;;;;;2141125;27;19923;-47
2022/07/18 06:11:33;;;;;;;;;;;;;;;;;;2135535;27;19976;-48
2022/07/18 06:12:34;;;;;;;;;;;;;;;;;;2132133;27;19973;-48
2022/07/18 06:13:35;;;;;;;;;;;;;;;;;;2132080;27;20044;-47
2022/07/18 06:14:36;;;;;;;;;;;;;;;;;;2132313;27;20400;-47
2022/07/18 06:15:37;;;;;;;;;;;;;;;;;;2132290;27;20380;-44
2022/07/18 06:16:37;;;;;;;;;;;;;;;;;;2132055;27;19934;-45
2022/07/18 06:17:39;;;;;;;;;;;;;;;;;;2131905;27;20001;-44
2022/07/18 06:18:40;;;;;;;;;;;;;;;;;;2131955;27;19923;-45
2022/07/18 06:19:41;;;;;;;;;;;;;;;;;;2137114;27;19927;-44
2022/07/18 06:20:42;;;;;;;;;;;;;;;;;;2134410;27;20002;-44
2022/07/18 06:21:43;;;;;;;;;;;;;;;;;;2131888;27;20390;-45
2022/07/18 06:22:44;;;;;;;;;;;;;;;;;;2131987;27;20014;-45
2022/07/18 06:23:45;;;;;;;;;;;;;;;;;;2132417;27;20010;-44
2022/07/18 06:24:46;;;;;;;;;;;;;;;;;;2132139;27;20385;-46
2022/07/18 06:25:46;;;;;;;;;;;;;;;;;;2132096;27;20370;-47
2022/07/18 06:26:49;;;;;;;;;;;;;;;;;;2132300;27;19959;-48
2022/07/18 06:27:50;;;;;;;;;;;;;;;;;;2132302;27;19923;-47
2022/07/18 06:28:51;;;;;;;;;;;;;;;;;;2132256;27;19927;-44
2022/07/18 06:29:52;;;;;;;;;;;;;;;;;;2132113;27;20331;-46
2022/07/18 06:30:53;;;;;;;;;;;;;;;;;;2131899;27;19948;-45
2022/07/18 06:31:54;;;;;;;;;;;;;;;;;;2132370;27;19930;-45
2022/07/18 06:32:55;;;;;;;;;;;;;;;;;;2132045;27;19923;-48
2022/07/18 06:33:56;;;;;;;;;;;;;;;;;;2132240;27;20335;-50
2022/07/18 06:35:02;;;;;;;;;;;;;;;;;;2132524;27;19923;-48
2022/07/18 06:36:05;;;;;;;;;;;;;;;;;;2132355;27;19966;-46
2022/07/18 06:37:06;;;;;;;;;;;;;;;;;;2131781;27;20011;-44
2022/07/18 06:38:07;;;;;;;;;;;;;;;;;;2132254;27;19961;-45
2022/07/18 06:39:10;;;;;;;;;;;;;;;;;;2131703;27;20044;-45
2022/07/18 06:40:11;;;;;;;;;;;;;;;;;;2132635;27;19962;-46
2022/07/18 06:41:12;;;;;;;;;;;;;;;;;;2132113;27;20328;-45
2022/07/18 06:42:13;;;;;;;;;;;;;;;;;;2132957;27;19923;-48
2022/07/18 06:43:19;;;;;;;;;;;;;;;;;;2132262;27;19923;-48
2022/07/18 06:44:20;;;;;;;;;;;;;;;;;;2131784;27;20056;-47
2022/07/18 06:45:20;;;;;;;;;;;;;;;;;;2132062;27;19962;-48
2022/07/18 06:46:21;;;;;;;;;;;;;;;;;;2132590;27;19929;-48
2022/07/18 06:47:22;;;;;;;;;;;;;;;;;;2135925;27;19922;-46
2022/07/18 06:48:23;;;;;;;;;;;;;;;;;;2141170;27;20284;-48
2022/07/18 06:49:25;;;;;;;;;;;;;;;;;;2140425;27;19987;-48
2022/07/18 06:50:26;;;;;;;;;;;;;;;;;;2140310;27;19962;-48
2022/07/18 06:51:26;;;;;;;;;;;;;;;;;;2140819;27;20018;-45
2022/07/18 06:52:27;;;;;;;;;;;;;;;;;;2141011;27;20002;-47
2022/07/18 06:53:28;;;;;;;;;;;;;;;;;;2140682;27;19923;-44
2022/07/18 06:54:30;;;;;;;;;;;;;;;;;;2140685;27;19923;-45
2022/07/18 06:55:30;;;;;;;;;;;;;;;;;;2140852;27;20014;-47
2022/07/18 06:56:31;;;;;;;;;;;;;;;;;;2140689;27;19978;-44
2022/07/18 06:57:32;;;;;;;;;;;;;;;;;;2140757;27;19958;-46
2022/07/18 06:58:33;;;;;;;;;;;;;;;;;;2140324;27;20320;-46